createdAt,value
2022-09-18T00:01:33.107Z,100918.97
2022-09-18T00:04:02.900Z,100913.66
2022-09-18T00:06:36.106Z,100905.25
2022-09-18T00:09:06.651Z,100903.63
2022-09-18T00:11:37.838Z,100921.38
2022-09-18T00:14:06.656Z,100917.13
2022-09-18T00:16:34.576Z,100912.00
2022-09-18T00:19:02.488Z,100918.53
2022-09-18T00:21:32.786Z,100920.59
2022-09-18T00:24:03.984Z,100924.28
2022-09-18T00:26:31.466Z,100921.81
2022-09-18T00:28:59.320Z,100923.69
2022-09-18T00:31:29.888Z,100928.38
2022-09-18T00:33:58.177Z,100933.06
2022-09-18T00:36:25.723Z,100934.13
2022-09-18T00:38:54.530Z,100932.88
2022-09-18T00:41:24.922Z,100936.97
2022-09-18T00:43:53.914Z,100930.22
2022-09-18T00:46:29.520Z,100933.72
2022-09-18T00:49:06.355Z,100937.78
2022-09-18T00:51:36.924Z,100934.94
2022-09-18T00:54:21.566Z,100945.56
2022-09-18T00:56:54.094Z,100937.00
2022-09-18T00:59:26.813Z,100939.03
2022-09-18T01:01:56.732Z,100928.41
2022-09-18T01:04:25.761Z,100920.25
2022-09-18T01:07:05.554Z,100921.06
2022-09-18T01:09:45.672Z,100929.63
2022-09-18T01:12:26.582Z,100922.91
2022-09-18T01:15:05.613Z,100924.31
2022-09-18T01:17:45.924Z,100931.28
2022-09-18T01:20:35.620Z,100940.25
2022-09-18T01:23:42.316Z,100931.06
2022-09-18T01:26:37.482Z,100925.97
2022-09-18T01:29:13.999Z,100921.25
2022-09-18T01:31:51.344Z,100928.22
2022-09-18T01:34:31.170Z,100910.44
2022-09-18T01:37:06.361Z,100918.63
2022-09-18T01:39:42.899Z,100922.28
2022-09-18T01:42:13.776Z,100917.19
2022-09-18T01:44:46.570Z,100918.41
2022-09-18T01:47:18.436Z,100918.81
2022-09-18T01:49:48.615Z,100918.81
2022-09-18T01:52:23.738Z,100912.28
2022-09-18T01:54:57.166Z,100915.94
2022-09-18T01:57:33.230Z,100923.13
2022-09-18T02:00:07.478Z,100925.97
2022-09-18T02:02:42.703Z,100929.22
2022-09-18T02:05:18.587Z,100922.28
2022-09-18T02:07:58.214Z,100925.97
2022-09-18T02:10:28.996Z,100922.28
2022-09-18T02:12:57.806Z,100920.66
2022-09-18T02:15:32.334Z,100928.44
2022-09-18T02:18:06.528Z,100925.56
2022-09-18T02:20:38.010Z,100934.13
2022-09-18T02:23:09.034Z,100923.91
2022-09-18T02:25:43.968Z,100929.22
2022-09-18T02:28:16.499Z,100929.88
2022-09-18T02:30:45.384Z,100921.91
2022-09-18T02:33:29.004Z,100922.28
2022-09-18T02:36:40.941Z,100918.22
2022-09-18T02:39:41.903Z,100919.22
2022-09-18T02:42:27.632Z,100914.13
2022-09-18T02:45:08.445Z,100913.31
2022-09-18T02:47:57.714Z,100917.41
2022-09-18T02:50:34.956Z,100916.97
2022-09-18T02:53:10.692Z,100901.66
2022-09-18T02:55:46.201Z,100899.63
2022-09-18T02:58:21.234Z,100904.31
2022-09-18T03:00:50.575Z,100901.66
2022-09-18T03:03:19.396Z,100908.00
2022-09-18T03:05:46.865Z,100905.34
2022-09-18T03:08:14.107Z,100904.72
2022-09-18T03:10:41.804Z,100898.78
2022-09-18T03:13:09.253Z,100896.34
2022-09-18T03:15:36.462Z,100895.94
2022-09-18T03:18:03.788Z,100900.84
2022-09-18T03:20:32.542Z,100903.69
2022-09-18T03:22:59.802Z,100897.75
2022-09-18T03:25:27.147Z,100908.59
2022-09-18T03:27:55.437Z,100910.41
2022-09-18T03:30:23.136Z,100909.16
2022-09-18T03:32:50.479Z,100908.56
2022-09-18T03:35:17.733Z,100907.94
2022-09-18T03:37:46.826Z,100903.03
2022-09-18T03:40:14.462Z,100907.50
2022-09-18T03:42:43.348Z,100908.34
2022-09-18T03:45:12.201Z,100900.56
2022-09-18T03:47:39.664Z,100900.16
2022-09-18T03:50:08.098Z,100899.56
2022-09-18T03:52:35.576Z,100900.56
2022-09-18T03:55:04.723Z,100901.59
2022-09-18T03:57:32.072Z,100907.91
2022-09-18T03:59:59.311Z,100900.94
2022-09-18T04:02:26.685Z,100912.19
2022-09-18T04:04:54.022Z,100909.56
2022-09-18T04:07:21.355Z,100914.88
2022-09-18T04:09:48.568Z,100917.72
2022-09-18T04:12:17.192Z,100911.63
2022-09-18T04:14:44.416Z,100917.97
2022-09-18T04:17:11.639Z,100906.16
2022-09-18T04:19:38.919Z,100903.50
2022-09-18T04:22:06.218Z,100889.22
2022-09-18T04:24:35.331Z,100894.09
2022-09-18T04:27:02.610Z,100898.63
2022-09-18T04:29:31.230Z,100897.78
2022-09-18T04:31:58.500Z,100898.78
2022-09-18T04:34:25.730Z,100891.22
2022-09-18T04:36:53.102Z,100894.94
2022-09-18T04:39:20.385Z,100884.72
2022-09-18T04:41:47.633Z,100875.31
2022-09-18T04:44:14.839Z,100877.59
2022-09-18T04:46:43.633Z,100875.69
2022-09-18T04:49:11.463Z,100883.84
2022-09-18T04:51:38.785Z,100905.47
2022-09-18T04:54:06.115Z,100896.16
2022-09-18T04:56:33.402Z,100890.84
2022-09-18T04:59:04.042Z,100885.94
2022-09-18T05:01:31.326Z,100887.56
2022-09-18T05:04:00.121Z,100882.50
2022-09-18T05:06:27.386Z,100879.41
2022-09-18T05:08:54.626Z,100872.06
2022-09-18T05:11:21.838Z,100872.03
2022-09-18T05:13:49.713Z,100872.81
2022-09-18T05:16:17.072Z,100864.66
2022-09-18T05:18:44.488Z,100877.31
2022-09-18T05:21:13.137Z,100876.09
2022-09-18T05:23:40.401Z,100874.44
2022-09-18T05:26:07.640Z,100883.81
2022-09-18T05:28:34.948Z,100876.91
2022-09-18T05:31:02.438Z,100872.59
2022-09-18T05:33:30.596Z,100880.56
2022-09-18T05:35:58.633Z,100876.47
2022-09-18T05:38:27.788Z,100888.50
2022-09-18T05:40:59.782Z,100886.25
2022-09-18T05:43:27.036Z,100890.72
2022-09-18T05:45:54.309Z,100883.38
2022-09-18T05:48:22.170Z,100888.28
2022-09-18T05:50:51.886Z,100884.41
2022-09-18T05:53:21.374Z,100885.84
2022-09-18T05:55:50.111Z,100891.16
2022-09-18T05:58:19.518Z,100884.41
2022-09-18T06:00:47.600Z,100890.72
2022-09-18T06:03:16.852Z,100884.84
2022-09-18T06:05:51.928Z,100890.78
2022-09-18T06:08:19.997Z,100889.94
2022-09-18T06:10:47.406Z,100889.16
2022-09-18T06:13:18.432Z,100900.16
2022-09-18T06:15:48.392Z,100896.16
2022-09-18T06:18:16.488Z,100889.22
2022-09-18T06:20:51.053Z,100883.50
2022-09-18T06:23:18.312Z,100883.72
2022-09-18T06:25:45.513Z,100878.59
2022-09-18T06:28:12.733Z,100880.44
2022-09-18T06:30:41.312Z,100881.84
2022-09-18T06:33:10.648Z,100875.31
2022-09-18T06:35:38.632Z,100888.19
2022-09-18T06:38:07.160Z,100890.00
2022-09-18T06:40:35.702Z,100886.31
2022-09-18T06:43:03.967Z,100884.06
2022-09-18T06:45:32.430Z,100877.34
2022-09-18T06:48:04.675Z,100889.16
2022-09-18T06:50:32.160Z,100886.28
2022-09-18T06:53:02.612Z,100896.69
2022-09-18T06:55:31.754Z,100891.97
2022-09-18T06:58:00.522Z,100897.19
2022-09-18T07:00:28.591Z,100890.38
2022-09-18T07:02:58.039Z,100895.00
2022-09-18T07:05:30.147Z,100896.03
2022-09-18T07:07:58.019Z,100891.06
2022-09-18T07:10:26.335Z,100891.41
2022-09-18T07:12:56.839Z,100890.41
2022-09-18T07:15:25.314Z,100900.06
2022-09-18T07:17:55.687Z,100905.88
2022-09-18T07:20:23.052Z,100907.19
2022-09-18T07:22:55.370Z,100916.06
2022-09-18T07:25:23.390Z,100912.88
2022-09-18T07:27:51.043Z,100911.16
2022-09-18T07:30:18.835Z,100907.38
2022-09-18T07:32:46.870Z,100901.28
2022-09-18T07:35:14.381Z,100903.94
2022-09-18T07:37:44.189Z,100895.88
2022-09-18T07:40:12.998Z,100897.00
2022-09-18T07:42:40.563Z,100888.91
2022-09-18T07:45:08.546Z,100894.53
2022-09-18T07:47:36.188Z,100896.81
2022-09-18T07:50:03.880Z,100879.91
2022-09-18T07:52:31.357Z,100887.34
2022-09-18T07:54:59.131Z,100884.56
2022-09-18T07:57:27.827Z,100890.72
2022-09-18T07:59:55.053Z,100887.16
2022-09-18T08:02:22.348Z,100880.72
2022-09-18T08:04:49.601Z,100880.16
2022-09-18T08:07:16.839Z,100879.88
2022-09-18T08:09:44.096Z,100875.16
2022-09-18T08:12:11.331Z,100879.13
2022-09-18T08:14:41.043Z,100884.94
2022-09-18T08:17:08.269Z,100890.59
2022-09-18T08:19:35.505Z,100879.31
2022-09-18T08:22:04.771Z,100883.66
2022-09-18T08:24:32.087Z,100882.75
2022-09-18T08:27:03.508Z,100867.41
2022-09-18T08:29:30.925Z,100874.00
2022-09-18T08:31:59.937Z,100867.97
2022-09-18T08:34:27.258Z,100872.94
2022-09-18T08:36:55.687Z,100865.84
2022-09-18T08:39:23.173Z,100865.50
2022-09-18T08:42:10.404Z,100869.66
2022-09-18T08:44:48.309Z,100865.00
2022-09-18T08:47:23.509Z,100868.66
2022-09-18T08:49:57.762Z,100869.19
2022-09-18T08:52:28.996Z,100863.19
2022-09-18T08:55:04.519Z,100862.16
2022-09-18T08:57:39.454Z,100850.13
2022-09-18T09:00:16.939Z,100850.16
2022-09-18T09:02:49.252Z,100850.66
2022-09-18T09:05:20.411Z,100853.69
2022-09-18T09:08:40.797Z,100852.66
2022-09-18T09:11:17.843Z,100848.69
2022-09-18T09:14:45.945Z,100845.47
2022-09-18T09:17:23.525Z,100837.00
2022-09-18T09:20:03.652Z,100836.97
2022-09-18T09:22:42.884Z,100830.03
2022-09-18T09:25:22.211Z,100828.22
2022-09-18T09:27:58.933Z,100823.53
2022-09-18T09:30:30.970Z,100819.34
2022-09-18T09:33:11.923Z,100818.09
2022-09-18T09:35:46.282Z,100810.03
2022-09-18T09:38:41.301Z,100802.13
2022-09-18T09:41:23.113Z,100798.34
2022-09-18T09:44:03.186Z,100803.75
2022-09-18T09:46:55.842Z,100786.75
2022-09-18T09:49:27.777Z,100778.41
2022-09-18T09:52:09.598Z,100787.47
2022-09-18T09:54:37.353Z,100782.25
2022-09-18T09:57:21.719Z,100792.28
2022-09-18T10:00:07.825Z,100806.63
2022-09-18T10:02:56.287Z,100826.09
2022-09-18T10:05:32.221Z,100837.50
2022-09-18T10:08:09.276Z,100837.06
2022-09-18T10:10:45.291Z,100873.06
2022-09-18T10:13:21.073Z,100845.97
2022-09-18T10:15:53.687Z,100846.34
2022-09-18T10:18:26.958Z,100856.38
2022-09-18T10:21:02.145Z,100855.06
2022-09-18T10:23:40.706Z,100852.50
2022-09-18T10:26:17.686Z,100839.50
2022-09-18T10:28:44.973Z,100843.66
2022-09-18T10:31:14.203Z,100847.03
2022-09-18T10:33:44.124Z,100849.25
2022-09-18T10:36:28.582Z,100852.72
2022-09-18T10:39:00.258Z,100854.16
2022-09-18T10:41:35.920Z,100861.31
2022-09-18T10:44:21.325Z,100857.00
2022-09-18T10:46:56.504Z,100850.09
2022-09-18T10:49:29.119Z,100860.75
2022-09-18T10:52:28.437Z,100858.38
2022-09-18T10:55:14.821Z,100851.03
2022-09-18T10:57:45.834Z,100840.38
2022-09-18T11:00:42.053Z,100854.38
2022-09-18T11:03:40.189Z,100840.81
2022-09-18T11:06:16.723Z,100839.06
2022-09-18T11:08:48.893Z,100836.66
2022-09-18T11:11:27.868Z,100827.44
2022-09-18T11:14:01.088Z,100814.91
2022-09-18T11:16:33.442Z,100809.31
2022-09-18T11:19:07.372Z,100796.19
2022-09-18T11:21:45.315Z,100793.47
2022-09-18T11:24:23.055Z,100794.81
2022-09-18T11:26:54.723Z,100794.44
2022-09-18T11:29:30.748Z,100796.13
2022-09-18T11:32:05.029Z,100785.47
2022-09-18T11:34:37.327Z,100780.78
2022-09-18T11:37:08.991Z,100766.13
2022-09-18T11:39:42.000Z,100761.28
2022-09-18T11:42:16.548Z,100761.25
2022-09-18T11:44:45.373Z,100784.13
2022-09-18T11:47:31.673Z,100772.88
2022-09-18T11:50:16.169Z,100758.09
2022-09-18T11:52:47.939Z,100761.03
2022-09-18T11:55:30.966Z,100766.41
2022-09-18T11:58:05.877Z,100756.16
2022-09-18T12:00:42.513Z,100765.84
2022-09-18T12:03:21.830Z,100761.66
2022-09-18T12:05:58.405Z,100762.44
2022-09-18T12:08:47.738Z,100774.59
2022-09-18T12:11:25.935Z,100805.25
2022-09-18T12:14:10.260Z,100801.25
2022-09-18T12:16:52.303Z,100795.53
2022-09-18T12:19:25.505Z,100775.25
2022-09-18T12:22:01.718Z,100762.44
2022-09-18T12:24:29.038Z,100759.38
2022-09-18T12:27:14.172Z,100771.72
2022-09-18T12:30:07.051Z,100785.84
2022-09-18T12:33:13.390Z,100784.72
2022-09-18T12:36:04.612Z,100789.53
2022-09-18T12:38:55.336Z,100793.19
2022-09-18T12:41:46.619Z,100798.56
2022-09-18T12:44:54.862Z,100792.09
2022-09-18T12:47:40.261Z,100784.31
2022-09-18T12:50:37.683Z,100795.00
2022-09-18T12:53:27.447Z,100785.72
2022-09-18T12:56:16.396Z,100794.31
2022-09-18T12:59:32.574Z,100784.56
2022-09-18T13:02:22.175Z,100777.34
2022-09-18T13:04:57.495Z,100784.06
2022-09-18T13:07:32.659Z,100774.00
2022-09-18T13:10:10.024Z,100773.06
2022-09-18T13:12:44.726Z,100763.66
2022-09-18T13:15:20.092Z,100757.97
2022-09-18T13:17:55.222Z,100756.56
2022-09-18T13:20:29.237Z,100748.66
2022-09-18T13:22:57.542Z,100744.00
2022-09-18T13:25:32.946Z,100739.81
2022-09-18T13:28:05.019Z,100747.00
2022-09-18T13:30:33.592Z,100739.28
2022-09-18T13:33:02.776Z,100738.75
2022-09-18T13:35:33.847Z,100731.03
2022-09-18T13:38:13.477Z,100735.50
2022-09-18T13:40:45.589Z,100737.88
2022-09-18T13:43:40.735Z,100734.78
2022-09-18T13:46:27.988Z,100745.41
2022-09-18T13:48:58.417Z,100779.53
2022-09-18T13:51:32.064Z,100772.88
2022-09-18T13:54:19.755Z,100773.91
2022-09-18T13:57:20.431Z,100762.56
2022-09-18T13:59:55.605Z,100743.44
2022-09-18T14:02:31.502Z,100744.06
2022-09-18T14:05:29.951Z,100736.03
2022-09-18T14:08:34.753Z,100738.03
2022-09-18T14:11:16.125Z,100734.44
2022-09-18T14:13:51.643Z,100733.16
2022-09-18T14:16:41.363Z,100727.81
2022-09-18T14:19:31.896Z,100728.38
2022-09-18T14:22:01.454Z,100722.44
2022-09-18T14:25:00.027Z,100722.78
2022-09-18T14:27:41.964Z,100725.13
2022-09-18T14:30:18.195Z,100726.56
2022-09-18T14:33:03.727Z,100716.22
2022-09-18T14:35:42.024Z,100720.84
2022-09-18T14:38:28.295Z,100715.50
2022-09-18T14:41:09.011Z,100719.56
2022-09-18T14:43:39.885Z,100716.63
2022-09-18T14:46:18.340Z,100723.53
2022-09-18T14:48:45.812Z,100715.16
2022-09-18T14:51:21.170Z,100715.66
2022-09-18T14:53:53.986Z,100712.47
2022-09-18T14:56:29.391Z,100705.63
2022-09-18T14:59:03.152Z,100708.97
2022-09-18T15:01:33.681Z,100701.81
2022-09-18T15:04:04.835Z,100687.66
2022-09-18T15:06:37.704Z,100694.78
2022-09-18T15:09:10.964Z,100697.09
2022-09-18T15:12:01.358Z,100691.75
2022-09-18T15:14:39.433Z,100706.75
2022-09-18T15:17:19.741Z,100725.47
2022-09-18T15:19:59.742Z,100751.72
2022-09-18T15:22:29.626Z,100726.38
2022-09-18T15:25:01.758Z,100718.44
2022-09-18T15:27:31.731Z,100720.44
2022-09-18T15:30:04.945Z,100718.63
2022-09-18T15:32:41.732Z,100713.88
2022-09-18T15:35:19.770Z,100749.97
2022-09-18T15:37:52.862Z,100755.03
2022-09-18T15:40:29.077Z,100750.59
2022-09-18T15:42:59.748Z,100758.91
2022-09-18T15:45:29.841Z,100746.72
2022-09-18T15:48:00.644Z,100738.31
2022-09-18T15:50:42.006Z,100728.25
2022-09-18T15:53:26.049Z,100721.59
2022-09-18T15:56:07.465Z,100730.06
2022-09-18T15:58:44.677Z,100729.00
2022-09-18T16:01:22.962Z,100727.72
2022-09-18T16:04:04.512Z,100713.97
2022-09-18T16:06:43.556Z,100711.69
2022-09-18T16:09:25.604Z,100706.94
2022-09-18T16:11:54.355Z,100700.25
2022-09-18T16:14:43.945Z,100694.94
2022-09-18T16:17:37.002Z,100689.59
2022-09-18T16:20:44.101Z,100688.78
2022-09-18T16:23:26.987Z,100680.53
2022-09-18T16:26:10.454Z,100694.00
2022-09-18T16:28:43.157Z,100691.91
2022-09-18T16:31:12.182Z,100693.56
2022-09-18T16:33:51.473Z,100690.75
2022-09-18T16:36:27.954Z,100684.03
2022-09-18T16:38:56.692Z,100671.38
2022-09-18T16:41:24.379Z,100683.09
2022-09-18T16:43:53.974Z,100682.03
2022-09-18T16:46:27.853Z,100687.97
2022-09-18T16:48:56.119Z,100678.50
2022-09-18T16:51:23.392Z,100676.59
2022-09-18T16:53:50.693Z,100671.88
2022-09-18T16:56:24.332Z,100672.34
2022-09-18T16:58:56.193Z,100674.75
2022-09-18T17:01:23.984Z,100678.50
2022-09-18T17:03:51.855Z,100674.75
2022-09-18T17:06:19.373Z,100683.81
2022-09-18T17:08:47.024Z,100682.19
2022-09-18T17:11:14.395Z,100695.50
2022-09-18T17:13:41.601Z,100681.03
2022-09-18T17:16:10.463Z,100689.47
2022-09-18T17:18:37.860Z,100678.63
2022-09-18T17:21:06.017Z,100679.56
2022-09-18T17:23:33.887Z,100681.50
2022-09-18T17:26:08.880Z,100674.84
2022-09-18T17:28:36.773Z,100669.59
2022-09-18T17:31:10.437Z,100667.28
2022-09-18T17:33:38.924Z,100673.25
2022-09-18T17:36:09.279Z,100666.16
2022-09-18T17:38:37.930Z,100671.13
2022-09-18T17:41:08.068Z,100669.13
2022-09-18T17:43:35.712Z,100674.91
2022-09-18T17:46:05.865Z,100660.19
2022-09-18T17:48:35.129Z,100659.81
2022-09-18T17:51:05.295Z,100667.22
2022-09-18T17:53:33.853Z,100662.13
2022-09-18T17:56:02.317Z,100656.22
2022-09-18T17:58:31.194Z,100657.00
2022-09-18T18:00:59.982Z,100657.47
2022-09-18T18:03:28.175Z,100650.50
2022-09-18T18:05:58.712Z,100646.81
2022-09-18T18:08:27.321Z,100653.75
2022-09-18T18:10:56.471Z,100666.25
2022-09-18T18:13:24.161Z,100661.75
2022-09-18T18:15:51.800Z,100664.84
2022-09-18T18:18:19.788Z,100666.47
2022-09-18T18:20:50.355Z,100671.81
2022-09-18T18:23:19.527Z,100673.44
2022-09-18T18:25:47.388Z,100666.06
2022-09-18T18:28:14.987Z,100691.03
2022-09-18T18:30:46.254Z,100700.88
2022-09-18T18:33:14.739Z,100687.78
2022-09-18T18:35:42.005Z,100754.56
2022-09-18T18:38:09.455Z,100752.13
2022-09-18T18:40:40.328Z,100749.53
2022-09-18T18:43:14.364Z,100751.66
2022-09-18T18:45:52.530Z,100755.16
2022-09-18T18:48:19.824Z,100749.25
2022-09-18T18:50:47.186Z,100747.59
2022-09-18T18:53:15.591Z,100760.13
2022-09-18T18:55:48.248Z,100750.25
2022-09-18T18:58:15.800Z,100751.09
2022-09-18T19:00:43.894Z,100741.84
2022-09-18T19:03:11.257Z,100751.03
2022-09-18T19:05:40.769Z,100761.25
2022-09-18T19:08:09.266Z,100755.88
2022-09-18T19:10:36.637Z,100756.66
2022-09-18T19:13:06.259Z,100763.97
2022-09-18T19:15:38.523Z,100773.56
2022-09-18T19:18:05.947Z,100777.06
2022-09-18T19:20:34.529Z,100777.28
2022-09-18T19:23:01.752Z,100773.22
2022-09-18T19:25:30.237Z,100781.97
2022-09-18T19:27:57.957Z,100785.28
2022-09-18T19:30:27.046Z,100779.94
2022-09-18T19:32:55.564Z,100784.81
2022-09-18T19:35:23.023Z,100783.63
2022-09-18T19:37:50.292Z,100784.53
2022-09-18T19:40:18.329Z,100791.53
2022-09-18T19:42:55.511Z,100794.25
2022-09-18T19:45:28.801Z,100797.31
2022-09-18T19:47:56.452Z,100798.78
2022-09-18T19:50:28.927Z,100798.16
2022-09-18T19:52:56.766Z,100806.16
2022-09-18T19:55:24.564Z,100818.44
2022-09-18T19:57:56.287Z,100813.13
2022-09-18T20:00:24.699Z,100823.53
2022-09-18T20:02:57.429Z,100828.50
2022-09-18T20:05:24.795Z,100833.81
2022-09-18T20:07:52.456Z,100838.97
2022-09-18T20:10:20.042Z,100840.44
2022-09-18T20:12:47.731Z,100842.50
2022-09-18T20:15:14.938Z,100850.91
2022-09-18T20:17:42.197Z,100854.59
2022-09-18T20:20:15.657Z,100875.28
2022-09-18T20:22:44.268Z,100875.28
2022-09-18T20:25:12.060Z,100872.59
2022-09-18T20:27:41.845Z,100885.50
2022-09-18T20:30:12.577Z,100885.28
2022-09-18T20:32:40.944Z,100876.03
2022-09-18T20:35:10.362Z,100883.00
2022-09-18T20:37:37.805Z,100886.69
2022-09-18T20:40:11.211Z,100891.19
2022-09-18T20:42:38.775Z,100898.38
2022-09-18T20:45:07.365Z,100894.88
2022-09-18T20:47:36.926Z,100902.28
2022-09-18T20:50:06.680Z,100908.84
2022-09-18T20:52:37.721Z,100905.34
2022-09-18T20:55:08.760Z,100909.84
2022-09-18T20:57:37.099Z,100907.19
2022-09-18T21:00:07.429Z,100906.38
2022-09-18T21:02:35.420Z,100914.59
2022-09-18T21:05:08.498Z,100916.63
2022-09-18T21:07:37.374Z,100911.31
2022-09-18T21:10:07.004Z,100914.59
2022-09-18T21:12:40.320Z,100917.47
2022-09-18T21:15:15.500Z,100918.72
2022-09-18T21:17:43.550Z,100924.44
2022-09-18T21:20:12.129Z,100919.53
2022-09-18T21:23:03.215Z,100928.56
2022-09-18T21:25:31.042Z,100937.19
2022-09-18T21:27:58.775Z,100932.66
2022-09-18T21:30:26.706Z,100936.13
2022-09-18T21:32:55.730Z,100929.81
2022-09-18T21:35:23.211Z,100945.75
2022-09-18T21:37:55.129Z,100950.63
2022-09-18T21:40:22.785Z,100953.09
2022-09-18T21:42:50.636Z,100960.66
2022-09-18T21:45:20.249Z,100956.16
2022-09-18T21:47:49.560Z,100964.94
2022-09-18T21:50:16.936Z,100972.69
2022-09-18T21:52:44.286Z,100969.84
2022-09-18T21:55:13.031Z,100967.78
2022-09-18T21:57:40.417Z,100962.47
2022-09-18T22:00:09.477Z,100967.78
2022-09-18T22:02:36.806Z,100973.13
2022-09-18T22:05:12.179Z,100980.06
2022-09-18T22:07:40.766Z,100980.50
2022-09-18T22:10:09.365Z,100987.06
2022-09-18T22:12:38.953Z,100997.09
2022-09-18T22:15:07.809Z,100990.34
2022-09-18T22:17:35.087Z,101000.38
2022-09-18T22:20:02.920Z,101001.81
2022-09-18T22:22:30.382Z,101007.13
2022-09-18T22:24:57.773Z,101001.81
2022-09-18T22:27:25.044Z,101005.50
2022-09-18T22:29:53.705Z,101007.13
2022-09-18T22:32:21.097Z,101008.78
2022-09-18T22:34:48.827Z,101012.88
2022-09-18T22:37:16.087Z,101016.94
2022-09-18T22:39:43.601Z,101023.47
2022-09-18T22:42:10.841Z,101026.94
2022-09-18T22:44:38.205Z,101030.84
2022-09-18T22:47:06.977Z,101032.31
2022-09-18T22:49:34.463Z,101034.78
2022-09-18T22:52:02.243Z,101043.38
2022-09-18T22:54:29.598Z,101041.94
2022-09-18T22:56:56.928Z,101038.06
2022-09-18T22:59:27.319Z,101046.47
2022-09-18T23:01:58.221Z,101049.94
2022-09-18T23:04:29.868Z,101057.94
2022-09-18T23:06:59.259Z,101054.88
2022-09-18T23:09:27.995Z,101056.31
2022-09-18T23:11:56.745Z,101063.25
2022-09-18T23:14:27.635Z,101063.69
2022-09-18T23:16:56.456Z,101072.91
2022-09-18T23:19:28.429Z,101073.91
2022-09-18T23:21:56.705Z,101072.28
2022-09-18T23:24:24.938Z,101069.63
2022-09-18T23:26:56.783Z,101075.56
2022-09-18T23:29:26.658Z,101078.41
2022-09-18T23:31:58.944Z,101076.78
2022-09-18T23:34:31.135Z,101078.16
2022-09-18T23:36:58.895Z,101085.53
2022-09-18T23:39:29.354Z,101089.41
2022-09-18T23:41:59.287Z,101094.13
2022-09-18T23:44:31.377Z,101095.16
2022-09-18T23:46:59.953Z,101095.34
2022-09-18T23:49:29.509Z,101101.69
2022-09-18T23:51:57.545Z,101099.22
2022-09-18T23:54:27.565Z,101103.09
2022-09-18T23:56:55.589Z,101111.50
2022-09-18T23:59:25.584Z,101109.22
